sensor_id;sensor_type;location;lat;lon;timestamp;temperature;humidity
10538;DHT22;5317;49.048;8.468;2022-08-01T00:00:05;27.30;44.40
10538;DHT22;5317;49.048;8.468;2022-08-01T00:02:34;27.30;44.70
10538;DHT22;5317;49.048;8.468;2022-08-01T00:05:02;27.20;44.60
10538;DHT22;5317;49.048;8.468;2022-08-01T00:07:31;27.20;44.80
10538;DHT22;5317;49.048;8.468;2022-08-01T00:09:58;27.20;44.60
10538;DHT22;5317;49.048;8.468;2022-08-01T00:12:25;27.20;44.60
10538;DHT22;5317;49.048;8.468;2022-08-01T00:14:52;27.20;44.60
10538;DHT22;5317;49.048;8.468;2022-08-01T00:17:19;27.20;44.80
10538;DHT22;5317;49.048;8.468;2022-08-01T00:19:46;27.20;44.80
10538;DHT22;5317;49.048;8.468;2022-08-01T00:22:15;27.20;44.90
10538;DHT22;5317;49.048;8.468;2022-08-01T00:24:42;27.10;45.70
10538;DHT22;5317;49.048;8.468;2022-08-01T00:27:09;27.10;45.10
10538;DHT22;5317;49.048;8.468;2022-08-01T00:29:36;27.10;45.30
10538;DHT22;5317;49.048;8.468;2022-08-01T00:32:04;27.10;45.40
10538;DHT22;5317;49.048;8.468;2022-08-01T00:34:33;27.10;45.50
10538;DHT22;5317;49.048;8.468;2022-08-01T00:37:00;27.10;45.60
10538;DHT22;5317;49.048;8.468;2022-08-01T00:39:29;27.00;45.70
10538;DHT22;5317;49.048;8.468;2022-08-01T00:41:58;27.00;45.70
10538;DHT22;5317;49.048;8.468;2022-08-01T00:44:25;27.00;45.70
10538;DHT22;5317;49.048;8.468;2022-08-01T00:46:52;27.00;45.80
10538;DHT22;5317;49.048;8.468;2022-08-01T00:49:19;26.90;46.00
10538;DHT22;5317;49.048;8.468;2022-08-01T00:51:46;26.90;46.10
10538;DHT22;5317;49.048;8.468;2022-08-01T00:54:14;26.80;46.30
10538;DHT22;5317;49.048;8.468;2022-08-01T00:56:43;26.80;46.50
10538;DHT22;5317;49.048;8.468;2022-08-01T00:59:11;26.80;46.60
10538;DHT22;5317;49.048;8.468;2022-08-01T01:01:39;26.70;46.60
10538;DHT22;5317;49.048;8.468;2022-08-01T01:04:07;26.70;46.70
10538;DHT22;5317;49.048;8.468;2022-08-01T01:06:41;26.60;46.80
10538;DHT22;5317;49.048;8.468;2022-08-01T01:09:34;26.60;47.00
10538;DHT22;5317;49.048;8.468;2022-08-01T01:12:26;26.50;47.60
10538;DHT22;5317;49.048;8.468;2022-08-01T01:15:02;26.30;47.80
10538;DHT22;5317;49.048;8.468;2022-08-01T01:17:38;26.20;48.10
10538;DHT22;5317;49.048;8.468;2022-08-01T01:20:13;26.00;48.30
10538;DHT22;5317;49.048;8.468;2022-08-01T01:22:57;26.00;48.30
10538;DHT22;5317;49.048;8.468;2022-08-01T01:25:46;25.90;48.90
10538;DHT22;5317;49.048;8.468;2022-08-01T01:28:32;25.80;48.80
10538;DHT22;5317;49.048;8.468;2022-08-01T01:31:06;25.80;49.00
10538;DHT22;5317;49.048;8.468;2022-08-01T01:33:38;25.70;49.30
10538;DHT22;5317;49.048;8.468;2022-08-01T01:36:09;25.70;49.00
10538;DHT22;5317;49.048;8.468;2022-08-01T01:38:42;25.80;49.10
10538;DHT22;5317;49.048;8.468;2022-08-01T01:41:13;25.80;49.30
10538;DHT22;5317;49.048;8.468;2022-08-01T01:43:43;25.80;49.10
10538;DHT22;5317;49.048;8.468;2022-08-01T01:46:17;25.90;49.30
10538;DHT22;5317;49.048;8.468;2022-08-01T01:48:50;25.90;49.40
10538;DHT22;5317;49.048;8.468;2022-08-01T01:51:21;25.90;49.20
10538;DHT22;5317;49.048;8.468;2022-08-01T01:53:52;26.00;49.40
10538;DHT22;5317;49.048;8.468;2022-08-01T01:56:23;26.00;49.40
10538;DHT22;5317;49.048;8.468;2022-08-01T01:58:55;26.00;49.50
10538;DHT22;5317;49.048;8.468;2022-08-01T02:01:32;26.00;49.50
10538;DHT22;5317;49.048;8.468;2022-08-01T02:04:02;26.00;49.50
10538;DHT22;5317;49.048;8.468;2022-08-01T02:06:30;26.00;49.50
10538;DHT22;5317;49.048;8.468;2022-08-01T02:09:01;26.00;49.50
10538;DHT22;5317;49.048;8.468;2022-08-01T02:11:28;26.00;49.50
10538;DHT22;5317;49.048;8.468;2022-08-01T02:13:59;25.90;49.80
10538;DHT22;5317;49.048;8.468;2022-08-01T02:16:35;25.90;49.90
10538;DHT22;5317;49.048;8.468;2022-08-01T02:19:03;25.90;50.10
10538;DHT22;5317;49.048;8.468;2022-08-01T02:21:37;25.90;50.10
10538;DHT22;5317;49.048;8.468;2022-08-01T02:24:12;25.80;50.30
10538;DHT22;5317;49.048;8.468;2022-08-01T02:26:47;25.80;50.40
10538;DHT22;5317;49.048;8.468;2022-08-01T02:29:21;25.80;50.60
10538;DHT22;5317;49.048;8.468;2022-08-01T02:31:54;25.80;50.70
10538;DHT22;5317;49.048;8.468;2022-08-01T02:34:22;25.70;50.60
10538;DHT22;5317;49.048;8.468;2022-08-01T02:36:57;25.70;50.80
10538;DHT22;5317;49.048;8.468;2022-08-01T02:39:28;25.60;51.00
10538;DHT22;5317;49.048;8.468;2022-08-01T02:42:02;25.50;51.10
10538;DHT22;5317;49.048;8.468;2022-08-01T02:44:36;25.40;51.30
10538;DHT22;5317;49.048;8.468;2022-08-01T02:47:07;25.30;51.50
10538;DHT22;5317;49.048;8.468;2022-08-01T02:49:40;25.30;51.70
10538;DHT22;5317;49.048;8.468;2022-08-01T02:52:13;25.20;52.10
10538;DHT22;5317;49.048;8.468;2022-08-01T02:54:43;25.00;52.20
10538;DHT22;5317;49.048;8.468;2022-08-01T02:57:13;24.90;52.50
10538;DHT22;5317;49.048;8.468;2022-08-01T02:59:43;24.80;52.80
10538;DHT22;5317;49.048;8.468;2022-08-01T03:02:14;24.80;53.00
10538;DHT22;5317;49.048;8.468;2022-08-01T03:04:44;24.80;53.00
10538;DHT22;5317;49.048;8.468;2022-08-01T03:07:13;24.80;53.00
10538;DHT22;5317;49.048;8.468;2022-08-01T03:09:45;24.80;53.10
10538;DHT22;5317;49.048;8.468;2022-08-01T03:12:17;24.70;53.80
10538;DHT22;5317;49.048;8.468;2022-08-01T03:14:47;24.70;53.30
10538;DHT22;5317;49.048;8.468;2022-08-01T03:17:21;24.70;53.30
10538;DHT22;5317;49.048;8.468;2022-08-01T03:19:52;24.70;53.50
10538;DHT22;5317;49.048;8.468;2022-08-01T03:22:22;24.70;53.80
10538;DHT22;5317;49.048;8.468;2022-08-01T03:24:56;24.70;53.80
10538;DHT22;5317;49.048;8.468;2022-08-01T03:27:25;24.60;53.90
10538;DHT22;5317;49.048;8.468;2022-08-01T03:29:55;24.50;54.10
10538;DHT22;5317;49.048;8.468;2022-08-01T03:32:27;24.40;54.20
10538;DHT22;5317;49.048;8.468;2022-08-01T03:34:56;24.40;54.60
10538;DHT22;5317;49.048;8.468;2022-08-01T03:37:26;24.30;54.70
10538;DHT22;5317;49.048;8.468;2022-08-01T03:40:00;24.20;55.00
10538;DHT22;5317;49.048;8.468;2022-08-01T03:42:32;24.10;55.10
10538;DHT22;5317;49.048;8.468;2022-08-01T03:45:10;24.10;55.30
10538;DHT22;5317;49.048;8.468;2022-08-01T03:47:44;24.20;55.20
10538;DHT22;5317;49.048;8.468;2022-08-01T03:50:16;24.20;55.30
10538;DHT22;5317;49.048;8.468;2022-08-01T03:52:47;24.20;55.20
10538;DHT22;5317;49.048;8.468;2022-08-01T03:55:18;24.20;55.10
10538;DHT22;5317;49.048;8.468;2022-08-01T03:57:47;24.30;55.00
10538;DHT22;5317;49.048;8.468;2022-08-01T04:00:17;24.30;55.00
10538;DHT22;5317;49.048;8.468;2022-08-01T04:02:46;24.30;54.90
10538;DHT22;5317;49.048;8.468;2022-08-01T04:05:14;24.30;55.10
10538;DHT22;5317;49.048;8.468;2022-08-01T04:07:46;24.30;55.10
10538;DHT22;5317;49.048;8.468;2022-08-01T04:10:20;24.30;55.10
10538;DHT22;5317;49.048;8.468;2022-08-01T04:12:48;24.40;55.20
10538;DHT22;5317;49.048;8.468;2022-08-01T04:15:15;24.40;55.10
10538;DHT22;5317;49.048;8.468;2022-08-01T04:17:42;24.40;55.00
10538;DHT22;5317;49.048;8.468;2022-08-01T04:20:12;24.40;55.30
10538;DHT22;5317;49.048;8.468;2022-08-01T04:22:41;24.40;55.30
10538;DHT22;5317;49.048;8.468;2022-08-01T04:25:14;24.40;55.10
10538;DHT22;5317;49.048;8.468;2022-08-01T04:27:46;24.40;55.30
10538;DHT22;5317;49.048;8.468;2022-08-01T04:30:16;24.40;55.20
10538;DHT22;5317;49.048;8.468;2022-08-01T04:32:46;24.50;55.20
10538;DHT22;5317;49.048;8.468;2022-08-01T04:35:18;24.40;55.10
10538;DHT22;5317;49.048;8.468;2022-08-01T04:37:48;24.40;55.20
10538;DHT22;5317;49.048;8.468;2022-08-01T04:40:18;24.40;55.50
10538;DHT22;5317;49.048;8.468;2022-08-01T04:42:48;24.40;55.50
10538;DHT22;5317;49.048;8.468;2022-08-01T04:45:16;24.50;55.80
10538;DHT22;5317;49.048;8.468;2022-08-01T04:47:45;24.50;55.70
10538;DHT22;5317;49.048;8.468;2022-08-01T04:50:13;24.50;55.70
10538;DHT22;5317;49.048;8.468;2022-08-01T04:52:42;24.60;55.60
10538;DHT22;5317;49.048;8.468;2022-08-01T04:55:12;24.60;55.50
10538;DHT22;5317;49.048;8.468;2022-08-01T04:57:43;24.70;55.70
10538;DHT22;5317;49.048;8.468;2022-08-01T05:00:13;24.70;55.80
10538;DHT22;5317;49.048;8.468;2022-08-01T05:02:42;24.70;55.80
10538;DHT22;5317;49.048;8.468;2022-08-01T05:05:09;24.70;55.80
10538;DHT22;5317;49.048;8.468;2022-08-01T05:07:36;24.70;55.80
10538;DHT22;5317;49.048;8.468;2022-08-01T05:10:06;24.80;56.00
10538;DHT22;5317;49.048;8.468;2022-08-01T05:12:33;24.80;56.70
10538;DHT22;5317;49.048;8.468;2022-08-01T05:15:01;24.80;56.20
10538;DHT22;5317;49.048;8.468;2022-08-01T05:17:28;24.80;56.00
10538;DHT22;5317;49.048;8.468;2022-08-01T05:19:55;24.80;56.90
10538;DHT22;5317;49.048;8.468;2022-08-01T05:22:22;24.70;56.60
10538;DHT22;5317;49.048;8.468;2022-08-01T05:24:51;24.70;56.40
10538;DHT22;5317;49.048;8.468;2022-08-01T05:27:20;24.70;56.60
10538;DHT22;5317;49.048;8.468;2022-08-01T05:29:47;24.80;56.80
10538;DHT22;5317;49.048;8.468;2022-08-01T05:32:15;24.80;56.40
10538;DHT22;5317;49.048;8.468;2022-08-01T05:34:44;24.90;56.40
10538;DHT22;5317;49.048;8.468;2022-08-01T05:37:11;25.00;56.30
10538;DHT22;5317;49.048;8.468;2022-08-01T05:39:38;25.00;56.60
10538;DHT22;5317;49.048;8.468;2022-08-01T05:42:07;24.90;56.60
10538;DHT22;5317;49.048;8.468;2022-08-01T05:44:35;25.10;56.60
10538;DHT22;5317;49.048;8.468;2022-08-01T05:47:03;25.10;56.60
10538;DHT22;5317;49.048;8.468;2022-08-01T05:49:31;25.10;56.80
10538;DHT22;5317;49.048;8.468;2022-08-01T05:51:59;25.00;56.70
10538;DHT22;5317;49.048;8.468;2022-08-01T05:54:27;25.10;56.80
10538;DHT22;5317;49.048;8.468;2022-08-01T05:56:55;25.10;56.90
10538;DHT22;5317;49.048;8.468;2022-08-01T05:59:25;25.20;57.10
10538;DHT22;5317;49.048;8.468;2022-08-01T06:01:54;25.20;57.10
10538;DHT22;5317;49.048;8.468;2022-08-01T06:04:21;25.20;57.20
10538;DHT22;5317;49.048;8.468;2022-08-01T06:06:50;25.20;57.80
10538;DHT22;5317;49.048;8.468;2022-08-01T06:09:17;25.30;57.50
10538;DHT22;5317;49.048;8.468;2022-08-01T06:11:44;25.40;57.00
10538;DHT22;5317;49.048;8.468;2022-08-01T06:14:12;25.40;56.70
10538;DHT22;5317;49.048;8.468;2022-08-01T06:16:39;25.60;56.70
10538;DHT22;5317;49.048;8.468;2022-08-01T06:19:07;25.70;56.70
10538;DHT22;5317;49.048;8.468;2022-08-01T06:21:39;25.80;56.40
10538;DHT22;5317;49.048;8.468;2022-08-01T06:24:06;26.00;56.10
10538;DHT22;5317;49.048;8.468;2022-08-01T06:26:35;26.20;56.00
10538;DHT22;5317;49.048;8.468;2022-08-01T06:29:02;26.30;56.30
10538;DHT22;5317;49.048;8.468;2022-08-01T06:31:30;26.30;55.60
10538;DHT22;5317;49.048;8.468;2022-08-01T06:33:57;26.30;55.70
10538;DHT22;5317;49.048;8.468;2022-08-01T06:36:26;26.20;55.60
10538;DHT22;5317;49.048;8.468;2022-08-01T06:38:53;26.20;55.80
10538;DHT22;5317;49.048;8.468;2022-08-01T06:41:20;26.30;55.60
10538;DHT22;5317;49.048;8.468;2022-08-01T06:43:47;26.50;56.10
10538;DHT22;5317;49.048;8.468;2022-08-01T06:46:15;26.70;55.40
10538;DHT22;5317;49.048;8.468;2022-08-01T06:48:42;26.80;54.90
10538;DHT22;5317;49.048;8.468;2022-08-01T06:51:09;26.90;54.70
10538;DHT22;5317;49.048;8.468;2022-08-01T06:53:40;27.10;54.40
10538;DHT22;5317;49.048;8.468;2022-08-01T06:56:07;27.20;54.30
10538;DHT22;5317;49.048;8.468;2022-08-01T06:58:36;27.20;54.30
10538;DHT22;5317;49.048;8.468;2022-08-01T07:01:03;27.20;54.10
10538;DHT22;5317;49.048;8.468;2022-08-01T07:03:32;27.20;54.10
10538;DHT22;5317;49.048;8.468;2022-08-01T07:06:00;27.20;54.30
10538;DHT22;5317;49.048;8.468;2022-08-01T07:08:27;27.30;54.00
10538;DHT22;5317;49.048;8.468;2022-08-01T07:10:56;27.50;54.20
10538;DHT22;5317;49.048;8.468;2022-08-01T07:13:25;27.70;53.60
10538;DHT22;5317;49.048;8.468;2022-08-01T07:15:52;27.70;53.20
10538;DHT22;5317;49.048;8.468;2022-08-01T07:18:20;27.80;53.70
10538;DHT22;5317;49.048;8.468;2022-08-01T07:20:48;27.80;52.90
10538;DHT22;5317;49.048;8.468;2022-08-01T07:23:15;27.80;52.80
10538;DHT22;5317;49.048;8.468;2022-08-01T07:25:43;27.80;52.70
10538;DHT22;5317;49.048;8.468;2022-08-01T07:28:15;27.80;53.00
10538;DHT22;5317;49.048;8.468;2022-08-01T07:30:43;28.00;52.80
10538;DHT22;5317;49.048;8.468;2022-08-01T07:33:10;28.10;53.40
10538;DHT22;5317;49.048;8.468;2022-08-01T07:35:38;28.20;52.50
10538;DHT22;5317;49.048;8.468;2022-08-01T07:38:06;28.30;52.30
10538;DHT22;5317;49.048;8.468;2022-08-01T07:40:33;28.30;51.70
10538;DHT22;5317;49.048;8.468;2022-08-01T07:43:01;28.30;51.20
10538;DHT22;5317;49.048;8.468;2022-08-01T07:45:30;28.40;51.00
10538;DHT22;5317;49.048;8.468;2022-08-01T07:48:02;28.50;51.00
10538;DHT22;5317;49.048;8.468;2022-08-01T07:50:30;28.70;50.30
10538;DHT22;5317;49.048;8.468;2022-08-01T07:52:57;28.70;50.00
10538;DHT22;5317;49.048;8.468;2022-08-01T07:55:25;28.70;49.70
10538;DHT22;5317;49.048;8.468;2022-08-01T07:57:52;28.80;49.40
10538;DHT22;5317;49.048;8.468;2022-08-01T08:00:19;28.80;49.20
10538;DHT22;5317;49.048;8.468;2022-08-01T08:02:48;29.00;49.50
10538;DHT22;5317;49.048;8.468;2022-08-01T08:05:15;28.90;49.30
10538;DHT22;5317;49.048;8.468;2022-08-01T08:07:42;29.00;48.90
10538;DHT22;5317;49.048;8.468;2022-08-01T08:10:10;28.80;49.20
10538;DHT22;5317;49.048;8.468;2022-08-01T08:12:37;28.80;49.10
10538;DHT22;5317;49.048;8.468;2022-08-01T08:15:05;28.70;49.20
10538;DHT22;5317;49.048;8.468;2022-08-01T08:17:32;28.80;49.80
10538;DHT22;5317;49.048;8.468;2022-08-01T08:20:03;28.90;49.50
10538;DHT22;5317;49.048;8.468;2022-08-01T08:22:31;28.90;49.00
10538;DHT22;5317;49.048;8.468;2022-08-01T08:24:59;28.90;49.10
10538;DHT22;5317;49.048;8.468;2022-08-01T08:27:26;28.90;48.90
10538;DHT22;5317;49.048;8.468;2022-08-01T08:29:53;28.90;49.10
10538;DHT22;5317;49.048;8.468;2022-08-01T08:32:20;28.90;49.10
10538;DHT22;5317;49.048;8.468;2022-08-01T08:34:48;28.90;49.40
10538;DHT22;5317;49.048;8.468;2022-08-01T08:37:16;28.80;49.50
10538;DHT22;5317;49.048;8.468;2022-08-01T08:39:43;28.80;49.90
10538;DHT22;5317;49.048;8.468;2022-08-01T08:42:11;28.70;49.90
10538;DHT22;5317;49.048;8.468;2022-08-01T08:44:40;28.80;49.70
10538;DHT22;5317;49.048;8.468;2022-08-01T08:47:09;28.80;49.70
10538;DHT22;5317;49.048;8.468;2022-08-01T08:49:38;28.80;49.70
10538;DHT22;5317;49.048;8.468;2022-08-01T08:52:08;28.60;50.10
10538;DHT22;5317;49.048;8.468;2022-08-01T08:54:41;28.60;50.40
10538;DHT22;5317;49.048;8.468;2022-08-01T08:57:11;28.70;50.40
10538;DHT22;5317;49.048;8.468;2022-08-01T08:59:40;28.90;50.10
10538;DHT22;5317;49.048;8.468;2022-08-01T09:02:09;29.00;49.90
10538;DHT22;5317;49.048;8.468;2022-08-01T09:04:38;29.10;49.70
10538;DHT22;5317;49.048;8.468;2022-08-01T09:07:06;29.20;49.60
10538;DHT22;5317;49.048;8.468;2022-08-01T09:09:34;29.10;49.70
10538;DHT22;5317;49.048;8.468;2022-08-01T09:12:04;29.00;49.60
10538;DHT22;5317;49.048;8.468;2022-08-01T09:14:34;28.90;49.60
10538;DHT22;5317;49.048;8.468;2022-08-01T09:17:12;28.90;49.80
10538;DHT22;5317;49.048;8.468;2022-08-01T09:19:41;29.00;50.50
10538;DHT22;5317;49.048;8.468;2022-08-01T09:22:11;29.20;50.90
10538;DHT22;5317;49.048;8.468;2022-08-01T09:24:57;29.30;49.70
10538;DHT22;5317;49.048;8.468;2022-08-01T09:27:28;29.40;50.60
10538;DHT22;5317;49.048;8.468;2022-08-01T09:30:07;29.40;49.40
10538;DHT22;5317;49.048;8.468;2022-08-01T09:32:36;29.40;49.70
10538;DHT22;5317;49.048;8.468;2022-08-01T09:35:24;29.50;50.60
10538;DHT22;5317;49.048;8.468;2022-08-01T09:38:17;29.60;50.20
10538;DHT22;5317;49.048;8.468;2022-08-01T09:40:47;29.70;51.20
10538;DHT22;5317;49.048;8.468;2022-08-01T09:43:18;29.90;49.80
10538;DHT22;5317;49.048;8.468;2022-08-01T09:45:46;30.00;49.20
10538;DHT22;5317;49.048;8.468;2022-08-01T09:48:14;30.10;49.30
10538;DHT22;5317;49.048;8.468;2022-08-01T09:50:43;30.20;49.30
10538;DHT22;5317;49.048;8.468;2022-08-01T09:53:12;30.20;48.60
10538;DHT22;5317;49.048;8.468;2022-08-01T09:55:40;30.00;48.70
10538;DHT22;5317;49.048;8.468;2022-08-01T09:58:08;30.00;48.60
10538;DHT22;5317;49.048;8.468;2022-08-01T10:00:40;30.10;48.40
10538;DHT22;5317;49.048;8.468;2022-08-01T10:03:19;30.20;48.90
10538;DHT22;5317;49.048;8.468;2022-08-01T10:05:47;30.30;48.90
10538;DHT22;5317;49.048;8.468;2022-08-01T10:08:15;30.20;47.50
10538;DHT22;5317;49.048;8.468;2022-08-01T10:10:46;29.90;47.60
10538;DHT22;5317;49.048;8.468;2022-08-01T10:13:33;29.70;48.00
10538;DHT22;5317;49.048;8.468;2022-08-01T10:16:02;29.60;48.30
10538;DHT22;5317;49.048;8.468;2022-08-01T10:18:34;29.80;49.00
10538;DHT22;5317;49.048;8.468;2022-08-01T10:21:03;30.00;49.30
10538;DHT22;5317;49.048;8.468;2022-08-01T10:23:36;30.20;48.50
10538;DHT22;5317;49.048;8.468;2022-08-01T10:26:05;30.20;48.20
10538;DHT22;5317;49.048;8.468;2022-08-01T10:28:35;30.30;48.20
10538;DHT22;5317;49.048;8.468;2022-08-01T10:31:08;30.40;47.40
10538;DHT22;5317;49.048;8.468;2022-08-01T10:33:36;30.60;47.40
10538;DHT22;5317;49.048;8.468;2022-08-01T10:36:05;30.80;47.70
10538;DHT22;5317;49.048;8.468;2022-08-01T10:38:34;31.00;46.50
10538;DHT22;5317;49.048;8.468;2022-08-01T10:41:03;30.80;46.20
10538;DHT22;5317;49.048;8.468;2022-08-01T10:43:31;30.80;46.50
10538;DHT22;5317;49.048;8.468;2022-08-01T10:45:58;31.00;47.10
10538;DHT22;5317;49.048;8.468;2022-08-01T10:48:33;31.10;47.40
10538;DHT22;5317;49.048;8.468;2022-08-01T10:51:06;31.10;45.60
10538;DHT22;5317;49.048;8.468;2022-08-01T10:53:34;31.10;46.10
10538;DHT22;5317;49.048;8.468;2022-08-01T10:56:03;31.20;46.50
10538;DHT22;5317;49.048;8.468;2022-08-01T10:58:35;31.20;45.80
10538;DHT22;5317;49.048;8.468;2022-08-01T11:01:21;31.20;46.50
10538;DHT22;5317;49.048;8.468;2022-08-01T11:04:02;31.20;45.80
10538;DHT22;5317;49.048;8.468;2022-08-01T11:09:38;31.30;45.10
10538;DHT22;5317;49.048;8.468;2022-08-01T11:12:09;31.30;45.20
10538;DHT22;5317;49.048;8.468;2022-08-01T11:17:53;31.30;46.20
10538;DHT22;5317;49.048;8.468;2022-08-01T11:20:24;31.50;46.30
10538;DHT22;5317;49.048;8.468;2022-08-01T11:23:26;31.60;46.30
10538;DHT22;5317;49.048;8.468;2022-08-01T11:26:14;31.50;45.30
10538;DHT22;5317;49.048;8.468;2022-08-01T11:28:44;31.30;44.90
10538;DHT22;5317;49.048;8.468;2022-08-01T11:31:33;31.20;45.60
10538;DHT22;5317;49.048;8.468;2022-08-01T11:34:00;31.20;45.60
10538;DHT22;5317;49.048;8.468;2022-08-01T11:36:29;31.40;45.60
10538;DHT22;5317;49.048;8.468;2022-08-01T11:39:14;31.40;45.60
10538;DHT22;5317;49.048;8.468;2022-08-01T11:41:47;31.50;45.10
10538;DHT22;5317;49.048;8.468;2022-08-01T11:44:18;31.60;45.30
10538;DHT22;5317;49.048;8.468;2022-08-01T11:46:58;31.70;45.70
10538;DHT22;5317;49.048;8.468;2022-08-01T11:49:32;31.80;45.80
10538;DHT22;5317;49.048;8.468;2022-08-01T11:52:19;32.00;45.70
10538;DHT22;5317;49.048;8.468;2022-08-01T11:54:53;32.20;44.20
10538;DHT22;5317;49.048;8.468;2022-08-01T11:57:22;32.30;44.20
10538;DHT22;5317;49.048;8.468;2022-08-01T11:59:52;32.50;44.70
10538;DHT22;5317;49.048;8.468;2022-08-01T12:02:24;32.60;43.00
10538;DHT22;5317;49.048;8.468;2022-08-01T12:04:55;32.60;43.90
10538;DHT22;5317;49.048;8.468;2022-08-01T12:07:25;32.70;43.30
10538;DHT22;5317;49.048;8.468;2022-08-01T12:09:59;32.90;43.80
10538;DHT22;5317;49.048;8.468;2022-08-01T12:12:28;33.10;43.90
10538;DHT22;5317;49.048;8.468;2022-08-01T12:15:00;33.40;43.80
10538;DHT22;5317;49.048;8.468;2022-08-01T12:17:32;33.60;43.10
10538;DHT22;5317;49.048;8.468;2022-08-01T12:20:01;33.80;43.20
10538;DHT22;5317;49.048;8.468;2022-08-01T12:22:31;33.80;42.50
10538;DHT22;5317;49.048;8.468;2022-08-01T12:25:05;33.90;42.10
10538;DHT22;5317;49.048;8.468;2022-08-01T12:27:36;33.90;42.30
10538;DHT22;5317;49.048;8.468;2022-08-01T12:30:06;33.90;41.00
10538;DHT22;5317;49.048;8.468;2022-08-01T12:32:35;33.90;42.00
10538;DHT22;5317;49.048;8.468;2022-08-01T12:35:05;34.00;42.20
10538;DHT22;5317;49.048;8.468;2022-08-01T12:37:36;34.20;41.90
10538;DHT22;5317;49.048;8.468;2022-08-01T12:40:15;34.20;41.70
10538;DHT22;5317;49.048;8.468;2022-08-01T12:42:46;34.30;41.30
10538;DHT22;5317;49.048;8.468;2022-08-01T12:45:15;34.20;40.60
10538;DHT22;5317;49.048;8.468;2022-08-01T12:47:45;34.30;41.30
10538;DHT22;5317;49.048;8.468;2022-08-01T12:50:15;34.30;41.30
10538;DHT22;5317;49.048;8.468;2022-08-01T12:52:46;34.40;41.40
10538;DHT22;5317;49.048;8.468;2022-08-01T12:55:15;34.40;40.10
10538;DHT22;5317;49.048;8.468;2022-08-01T12:57:45;34.10;39.70
10538;DHT22;5317;49.048;8.468;2022-08-01T13:00:18;33.80;40.00
10538;DHT22;5317;49.048;8.468;2022-08-01T13:02:49;33.90;41.00
10538;DHT22;5317;49.048;8.468;2022-08-01T13:05:17;34.00;40.90
10538;DHT22;5317;49.048;8.468;2022-08-01T13:07:48;34.30;41.30
10538;DHT22;5317;49.048;8.468;2022-08-01T13:10:25;34.50;40.00
10538;DHT22;5317;49.048;8.468;2022-08-01T13:12:56;34.30;39.10
10538;DHT22;5317;49.048;8.468;2022-08-01T13:15:27;34.00;39.30
10538;DHT22;5317;49.048;8.468;2022-08-01T13:17:58;34.10;39.80
10538;DHT22;5317;49.048;8.468;2022-08-01T13:20:32;34.10;40.00
10538;DHT22;5317;49.048;8.468;2022-08-01T13:23:12;34.20;40.20
10538;DHT22;5317;49.048;8.468;2022-08-01T13:25:52;34.40;39.80
10538;DHT22;5317;49.048;8.468;2022-08-01T13:28:23;34.50;39.90
10538;DHT22;5317;49.048;8.468;2022-08-01T13:30:57;34.60;40.00
10538;DHT22;5317;49.048;8.468;2022-08-01T13:33:27;34.70;39.10
10538;DHT22;5317;49.048;8.468;2022-08-01T13:36:06;34.80;39.70
10538;DHT22;5317;49.048;8.468;2022-08-01T13:38:34;34.90;39.30
10538;DHT22;5317;49.048;8.468;2022-08-01T13:41:19;34.90;39.00
10538;DHT22;5317;49.048;8.468;2022-08-01T13:43:46;35.00;38.90
10538;DHT22;5317;49.048;8.468;2022-08-01T13:46:13;35.20;38.20
10538;DHT22;5317;49.048;8.468;2022-08-01T13:48:41;35.30;38.30
10538;DHT22;5317;49.048;8.468;2022-08-01T13:51:08;35.40;38.20
10538;DHT22;5317;49.048;8.468;2022-08-01T13:53:37;35.50;38.00
10538;DHT22;5317;49.048;8.468;2022-08-01T13:56:04;35.50;38.10
10538;DHT22;5317;49.048;8.468;2022-08-01T13:58:31;35.50;37.10
10538;DHT22;5317;49.048;8.468;2022-08-01T14:00:58;35.50;37.50
10538;DHT22;5317;49.048;8.468;2022-08-01T14:03:25;35.40;37.40
10538;DHT22;5317;49.048;8.468;2022-08-01T14:05:52;35.40;37.50
10538;DHT22;5317;49.048;8.468;2022-08-01T14:08:22;35.30;38.20
10538;DHT22;5317;49.048;8.468;2022-08-01T14:10:51;35.10;36.70
10538;DHT22;5317;49.048;8.468;2022-08-01T14:13:19;34.90;37.80
10538;DHT22;5317;49.048;8.468;2022-08-01T14:15:46;34.90;38.10
10538;DHT22;5317;49.048;8.468;2022-08-01T14:18:13;35.00;38.50
10538;DHT22;5317;49.048;8.468;2022-08-01T14:20:40;35.00;37.00
10538;DHT22;5317;49.048;8.468;2022-08-01T14:23:08;34.80;37.50
10538;DHT22;5317;49.048;8.468;2022-08-01T14:25:38;34.60;37.90
10538;DHT22;5317;49.048;8.468;2022-08-01T14:28:08;34.50;38.20
10538;DHT22;5317;49.048;8.468;2022-08-01T14:30:36;34.50;38.40
10538;DHT22;5317;49.048;8.468;2022-08-01T14:33:05;34.60;38.50
10538;DHT22;5317;49.048;8.468;2022-08-01T14:35:32;34.70;38.40
10538;DHT22;5317;49.048;8.468;2022-08-01T14:37:59;34.80;38.20
10538;DHT22;5317;49.048;8.468;2022-08-01T14:40:26;34.80;38.00
10538;DHT22;5317;49.048;8.468;2022-08-01T14:42:54;34.80;37.80
10538;DHT22;5317;49.048;8.468;2022-08-01T14:45:22;34.90;37.90
10538;DHT22;5317;49.048;8.468;2022-08-01T14:47:50;34.80;37.90
10538;DHT22;5317;49.048;8.468;2022-08-01T14:50:17;34.70;37.70
10538;DHT22;5317;49.048;8.468;2022-08-01T14:52:44;34.40;37.70
10538;DHT22;5317;49.048;8.468;2022-08-01T14:55:12;34.20;39.20
10538;DHT22;5317;49.048;8.468;2022-08-01T14:57:40;34.10;38.40
10538;DHT22;5317;49.048;8.468;2022-08-01T15:00:09;34.00;38.70
10538;DHT22;5317;49.048;8.468;2022-08-01T15:02:39;33.90;38.50
10538;DHT22;5317;49.048;8.468;2022-08-01T15:05:10;33.80;38.80
10538;DHT22;5317;49.048;8.468;2022-08-01T15:07:38;33.80;39.20
10538;DHT22;5317;49.048;8.468;2022-08-01T15:10:06;33.70;38.80
10538;DHT22;5317;49.048;8.468;2022-08-01T15:12:34;33.50;39.30
10538;DHT22;5317;49.048;8.468;2022-08-01T15:15:03;33.40;39.20
10538;DHT22;5317;49.048;8.468;2022-08-01T15:17:31;32.90;39.50
10538;DHT22;5317;49.048;8.468;2022-08-01T15:20:03;32.90;40.40
10538;DHT22;5317;49.048;8.468;2022-08-01T15:22:33;32.90;40.40
10538;DHT22;5317;49.048;8.468;2022-08-01T15:25:05;33.00;40.50
10538;DHT22;5317;49.048;8.468;2022-08-01T15:27:32;33.10;40.60
10538;DHT22;5317;49.048;8.468;2022-08-01T15:29:59;33.10;40.60
10538;DHT22;5317;49.048;8.468;2022-08-01T15:32:27;33.20;40.60
10538;DHT22;5317;49.048;8.468;2022-08-01T15:34:55;33.20;40.90
10538;DHT22;5317;49.048;8.468;2022-08-01T15:37:23;33.20;40.30
10538;DHT22;5317;49.048;8.468;2022-08-01T15:39:50;33.10;40.30
10538;DHT22;5317;49.048;8.468;2022-08-01T15:42:18;33.00;40.00
10538;DHT22;5317;49.048;8.468;2022-08-01T15:44:46;32.90;40.50
10538;DHT22;5317;49.048;8.468;2022-08-01T15:47:13;32.90;40.70
10538;DHT22;5317;49.048;8.468;2022-08-01T15:49:40;32.90;40.70
10538;DHT22;5317;49.048;8.468;2022-08-01T15:52:08;33.00;40.70
10538;DHT22;5317;49.048;8.468;2022-08-01T15:54:37;33.00;40.80
10538;DHT22;5317;49.048;8.468;2022-08-01T15:57:06;32.90;40.40
10538;DHT22;5317;49.048;8.468;2022-08-01T15:59:34;32.90;41.30
10538;DHT22;5317;49.048;8.468;2022-08-01T16:02:02;32.90;41.00
10538;DHT22;5317;49.048;8.468;2022-08-01T16:04:29;32.80;40.60
10538;DHT22;5317;49.048;8.468;2022-08-01T16:06:56;32.80;41.00
10538;DHT22;5317;49.048;8.468;2022-08-01T16:09:24;32.70;41.10